Bloom City, Wisconsin
Current Conditions -  °F | °C
As of 4:35 PM on Monday 20 Oct 2014 (Local Time) from KC35 Reporting Station
Overcast Overcast  
Wind Chill: 14°   Ceiling: 5000
Heat Index: 14°   Visibility: 10mi
Dew Point:   Wind: 9mph
Humidity: 55%   Direction: 10°N
Pressure: 29.94"   Gusts: 16mph
Location:  43.6121°N, 90.3998°W
Report Text: KC35 202135Z AUTO 01008G14KT 10SM OVC050 14/05 A2994 RMK AO2 T01370047
Loading
Personal Weather Stations






























Interactive Weather Map
Tropical Storm Tracking
New forecast layout! Learn more

10-Day Weather Forecast

Advertisements
Track Severe Weather on mobile